sensor_id;sensor_type;location;lat;lon;timestamp;pressure;altitude;pressure_sealevel;temperature;humidity
20612;BME280;10465;42.686;23.364;2024-02-28T00:01:37;95299.31;;;11.94;71.37
20612;BME280;10465;42.686;23.364;2024-02-28T00:04:03;95323.38;;;11.98;71.67
20612;BME280;10465;42.686;23.364;2024-02-28T00:06:28;95299.00;;;11.73;72.06
20612;BME280;10465;42.686;23.364;2024-02-28T00:08:54;95326.72;;;12.03;71.70
20612;BME280;10465;42.686;23.364;2024-02-28T00:11:20;95326.16;;;11.93;72.16
20612;BME280;10465;42.686;23.364;2024-02-28T00:13:46;95333.53;;;11.96;72.71
20612;BME280;10465;42.686;23.364;2024-02-28T00:16:11;95314.78;;;11.78;73.05
20612;BME280;10465;42.686;23.364;2024-02-28T00:18:37;95331.94;;;11.95;72.04
20612;BME280;10465;42.686;23.364;2024-02-28T00:21:03;95327.84;;;11.88;72.02
20612;BME280;10465;42.686;23.364;2024-02-28T00:23:29;95328.16;;;11.87;71.81
20612;BME280;10465;42.686;23.364;2024-02-28T00:25:55;95328.03;;;11.78;72.23
20612;BME280;10465;42.686;23.364;2024-02-28T00:28:20;95311.41;;;11.64;73.05
20612;BME280;10465;42.686;23.364;2024-02-28T00:30:46;95330.09;;;11.59;74.25
20612;BME280;10465;42.686;23.364;2024-02-28T00:33:11;95325.31;;;11.47;75.29
20612;BME280;10465;42.686;23.364;2024-02-28T00:35:37;95326.22;;;11.29;75.69
20612;BME280;10465;42.686;23.364;2024-02-28T00:38:02;95308.38;;;11.34;75.55
20612;BME280;10465;42.686;23.364;2024-02-28T00:40:28;95322.22;;;11.54;75.06
20612;BME280;10465;42.686;23.364;2024-02-28T00:42:54;95298.31;;;11.45;74.51
20612;BME280;10465;42.686;23.364;2024-02-28T00:45:19;95290.78;;;11.38;73.96
20612;BME280;10465;42.686;23.364;2024-02-28T00:47:44;95323.00;;;11.54;74.38
20612;BME280;10465;42.686;23.364;2024-02-28T00:50:10;95300.75;;;11.42;74.01
20612;BME280;10465;42.686;23.364;2024-02-28T00:52:37;95313.53;;;11.39;74.61
20612;BME280;10465;42.686;23.364;2024-02-28T00:55:02;95318.72;;;11.45;73.97
20612;BME280;10465;42.686;23.364;2024-02-28T00:57:30;95305.22;;;11.32;73.99
20612;BME280;10465;42.686;23.364;2024-02-28T00:59:55;95310.81;;;11.31;74.70
20612;BME280;10465;42.686;23.364;2024-02-28T01:02:21;95332.47;;;11.47;73.76
20612;BME280;10465;42.686;23.364;2024-02-28T01:04:46;95331.97;;;11.45;74.00
20612;BME280;10465;42.686;23.364;2024-02-28T01:07:12;95342.13;;;11.43;74.29
20612;BME280;10465;42.686;23.364;2024-02-28T01:09:37;95319.75;;;11.21;74.84
20612;BME280;10465;42.686;23.364;2024-02-28T01:12:03;95324.00;;;11.22;75.15
20612;BME280;10465;42.686;23.364;2024-02-28T01:14:28;95313.28;;;11.13;75.47
20612;BME280;10465;42.686;23.364;2024-02-28T01:16:53;95328.59;;;11.17;76.17
20612;BME280;10465;42.686;23.364;2024-02-28T01:19:19;95296.13;;;10.97;75.84
20612;BME280;10465;42.686;23.364;2024-02-28T01:21:44;95312.81;;;10.98;76.48
20612;BME280;10465;42.686;23.364;2024-02-28T01:24:10;95339.50;;;11.01;77.06
20612;BME280;10465;42.686;23.364;2024-02-28T01:26:35;95337.72;;;10.97;76.63
20612;BME280;10465;42.686;23.364;2024-02-28T01:29:00;95332.84;;;10.90;76.84
20612;BME280;10465;42.686;23.364;2024-02-28T01:31:26;95330.28;;;10.85;76.74
20612;BME280;10465;42.686;23.364;2024-02-28T01:33:51;95280.38;;;10.51;76.57
20612;BME280;10465;42.686;23.364;2024-02-28T01:36:17;95335.50;;;10.90;76.47
20612;BME280;10465;42.686;23.364;2024-02-28T01:38:42;95345.28;;;10.89;77.10
20612;BME280;10465;42.686;23.364;2024-02-28T01:41:07;95293.22;;;10.57;76.95
20612;BME280;10465;42.686;23.364;2024-02-28T01:43:33;95348.81;;;10.85;77.13
20612;BME280;10465;42.686;23.364;2024-02-28T01:46:04;95337.75;;;10.83;76.83
20612;BME280;10465;42.686;23.364;2024-02-28T01:48:31;95347.25;;;10.84;76.81
20612;BME280;10465;42.686;23.364;2024-02-28T01:50:57;95339.31;;;10.70;77.48
20612;BME280;10465;42.686;23.364;2024-02-28T01:53:22;95322.72;;;10.51;77.58
20612;BME280;10465;42.686;23.364;2024-02-28T01:55:48;95328.69;;;10.56;77.67
20612;BME280;10465;42.686;23.364;2024-02-28T01:58:13;95359.00;;;10.64;78.15
20612;BME280;10465;42.686;23.364;2024-02-28T02:00:39;95310.16;;;10.10;78.34
20612;BME280;10465;42.686;23.364;2024-02-28T02:03:04;95310.06;;;10.15;78.79
20612;BME280;10465;42.686;23.364;2024-02-28T02:05:30;95363.41;;;10.55;78.31
20612;BME280;10465;42.686;23.364;2024-02-28T02:07:58;95334.94;;;10.33;79.21
20612;BME280;10465;42.686;23.364;2024-02-28T02:10:25;95336.72;;;10.37;80.42
20612;BME280;10465;42.686;23.364;2024-02-28T02:12:51;95355.06;;;10.48;80.79
20612;BME280;10465;42.686;23.364;2024-02-28T02:15:16;95356.44;;;10.45;81.30
20612;BME280;10465;42.686;23.364;2024-02-28T02:17:42;95362.09;;;10.38;80.08
20612;BME280;10465;42.686;23.364;2024-02-28T02:20:10;95356.44;;;10.45;78.99
20612;BME280;10465;42.686;23.364;2024-02-28T02:22:37;95350.94;;;10.42;79.40
20612;BME280;10465;42.686;23.364;2024-02-28T02:25:06;95353.19;;;10.34;78.83
20612;BME280;10465;42.686;23.364;2024-02-28T02:27:32;95352.75;;;10.27;79.71
20612;BME280;10465;42.686;23.364;2024-02-28T02:29:57;95342.50;;;10.21;79.40
20612;BME280;10465;42.686;23.364;2024-02-28T02:32:23;95338.09;;;10.16;79.73
20612;BME280;10465;42.686;23.364;2024-02-28T02:34:48;95348.00;;;10.24;79.47
20612;BME280;10465;42.686;23.364;2024-02-28T02:37:13;95350.66;;;10.24;80.05
20612;BME280;10465;42.686;23.364;2024-02-28T02:39:39;95346.25;;;10.20;79.97
20612;BME280;10465;42.686;23.364;2024-02-28T02:42:04;95357.03;;;10.23;80.15
20612;BME280;10465;42.686;23.364;2024-02-28T02:44:30;95347.91;;;10.15;79.78
20612;BME280;10465;42.686;23.364;2024-02-28T02:46:55;95328.78;;;10.05;80.25
20612;BME280;10465;42.686;23.364;2024-02-28T02:49:20;95361.53;;;10.23;80.58
20612;BME280;10465;42.686;23.364;2024-02-28T02:51:46;95365.16;;;10.13;80.50
20612;BME280;10465;42.686;23.364;2024-02-28T02:54:11;95340.50;;;9.99;80.29
20612;BME280;10465;42.686;23.364;2024-02-28T02:56:37;95349.72;;;10.01;80.58
20612;BME280;10465;42.686;23.364;2024-02-28T02:59:02;95338.09;;;9.83;80.92
20612;BME280;10465;42.686;23.364;2024-02-28T03:01:28;95360.09;;;9.98;80.93
20612;BME280;10465;42.686;23.364;2024-02-28T03:03:53;95355.81;;;10.02;80.85
20612;BME280;10465;42.686;23.364;2024-02-28T03:06:19;95342.44;;;9.93;81.43
20612;BME280;10465;42.686;23.364;2024-02-28T03:08:44;95338.09;;;9.83;81.49
20612;BME280;10465;42.686;23.364;2024-02-28T03:11:10;95328.03;;;9.85;81.82
20612;BME280;10465;42.686;23.364;2024-02-28T03:13:36;95347.28;;;10.05;81.06
20612;BME280;10465;42.686;23.364;2024-02-28T03:16:03;95344.38;;;9.87;82.35
20612;BME280;10465;42.686;23.364;2024-02-28T03:18:29;95344.66;;;9.86;82.16
20612;BME280;10465;42.686;23.364;2024-02-28T03:20:54;95325.81;;;9.74;82.75
20612;BME280;10465;42.686;23.364;2024-02-28T03:23:20;95326.38;;;9.71;82.96
20612;BME280;10465;42.686;23.364;2024-02-28T03:25:45;95362.31;;;9.90;83.18
20612;BME280;10465;42.686;23.364;2024-02-28T03:28:10;95357.09;;;9.85;83.60
20612;BME280;10465;42.686;23.364;2024-02-28T03:30:36;95340.16;;;9.68;84.03
20612;BME280;10465;42.686;23.364;2024-02-28T03:33:01;95365.25;;;9.70;84.93
20612;BME280;10465;42.686;23.364;2024-02-28T03:35:27;95365.13;;;9.80;84.79
20612;BME280;10465;42.686;23.364;2024-02-28T03:37:52;95366.97;;;9.80;84.41
20612;BME280;10465;42.686;23.364;2024-02-28T03:40:17;95353.97;;;9.64;84.69
20612;BME280;10465;42.686;23.364;2024-02-28T03:42:43;95354.16;;;9.68;84.63
20612;BME280;10465;42.686;23.364;2024-02-28T03:45:08;95351.91;;;9.61;84.85
20612;BME280;10465;42.686;23.364;2024-02-28T03:47:34;95365.34;;;9.65;85.09
20612;BME280;10465;42.686;23.364;2024-02-28T03:49:59;95368.03;;;9.60;86.12
20612;BME280;10465;42.686;23.364;2024-02-28T03:52:25;95358.97;;;9.66;85.70
20612;BME280;10465;42.686;23.364;2024-02-28T03:54:50;95360.28;;;9.69;85.13
20612;BME280;10465;42.686;23.364;2024-02-28T03:57:16;95335.25;;;9.42;85.72
20612;BME280;10465;42.686;23.364;2024-02-28T03:59:41;95359.81;;;9.43;87.76
20612;BME280;10465;42.686;23.364;2024-02-28T04:02:06;95346.69;;;9.37;88.01
20612;BME280;10465;42.686;23.364;2024-02-28T04:04:32;95362.75;;;9.60;87.14
20612;BME280;10465;42.686;23.364;2024-02-28T04:06:57;95369.19;;;9.73;87.37
20612;BME280;10465;42.686;23.364;2024-02-28T04:09:23;95355.81;;;9.64;87.08
20612;BME280;10465;42.686;23.364;2024-02-28T04:11:48;95365.56;;;9.69;86.08
20612;BME280;10465;42.686;23.364;2024-02-28T04:14:14;95369.69;;;9.75;86.36
20612;BME280;10465;42.686;23.364;2024-02-28T04:16:43;95352.03;;;9.70;86.33
20612;BME280;10465;42.686;23.364;2024-02-28T04:19:12;95363.03;;;9.77;85.88
20612;BME280;10465;42.686;23.364;2024-02-28T04:21:37;95355.13;;;9.58;86.52
20612;BME280;10465;42.686;23.364;2024-02-28T04:24:06;95363.13;;;9.53;86.27
20612;BME280;10465;42.686;23.364;2024-02-28T04:26:32;95362.56;;;9.56;86.33
20612;BME280;10465;42.686;23.364;2024-02-28T04:28:57;95362.06;;;9.73;85.68
20612;BME280;10465;42.686;23.364;2024-02-28T04:31:24;95342.75;;;9.54;86.29
20612;BME280;10465;42.686;23.364;2024-02-28T04:33:51;95372.97;;;9.66;86.18
20612;BME280;10465;42.686;23.364;2024-02-28T04:36:17;95341.69;;;9.36;86.91
20612;BME280;10465;42.686;23.364;2024-02-28T04:38:42;95366.03;;;9.52;87.40
20612;BME280;10465;42.686;23.364;2024-02-28T04:41:08;95366.31;;;9.50;87.76
20612;BME280;10465;42.686;23.364;2024-02-28T04:43:33;95364.31;;;9.42;87.40
20612;BME280;10465;42.686;23.364;2024-02-28T04:45:58;95372.13;;;9.52;87.46
20612;BME280;10465;42.686;23.364;2024-02-28T04:48:24;95346.09;;;9.22;88.05
20612;BME280;10465;42.686;23.364;2024-02-28T04:50:49;95370.25;;;9.34;88.62
20612;BME280;10465;42.686;23.364;2024-02-28T04:53:14;95364.25;;;9.47;87.52
20612;BME280;10465;42.686;23.364;2024-02-28T04:55:40;95371.38;;;9.47;87.94
20612;BME280;10465;42.686;23.364;2024-02-28T04:58:05;95372.19;;;9.47;87.96
20612;BME280;10465;42.686;23.364;2024-02-28T05:00:31;95379.75;;;9.54;87.75
20612;BME280;10465;42.686;23.364;2024-02-28T05:02:56;95383.25;;;9.49;87.79
20612;BME280;10465;42.686;23.364;2024-02-28T05:05:22;95347.66;;;9.23;88.02
20612;BME280;10465;42.686;23.364;2024-02-28T05:07:47;95380.47;;;9.40;88.43
20612;BME280;10465;42.686;23.364;2024-02-28T05:10:12;95386.75;;;9.45;88.28
20612;BME280;10465;42.686;23.364;2024-02-28T05:12:38;95389.09;;;9.46;88.23
20612;BME280;10465;42.686;23.364;2024-02-28T05:15:03;95386.53;;;9.41;88.49
20612;BME280;10465;42.686;23.364;2024-02-28T05:17:31;95374.44;;;9.35;88.56
20612;BME280;10465;42.686;23.364;2024-02-28T05:19:57;95395.47;;;9.45;88.85
20612;BME280;10465;42.686;23.364;2024-02-28T05:22:22;95389.25;;;9.36;88.32
20612;BME280;10465;42.686;23.364;2024-02-28T05:24:47;95404.97;;;9.46;88.68
20612;BME280;10465;42.686;23.364;2024-02-28T05:27:13;95393.59;;;9.46;87.96
20612;BME280;10465;42.686;23.364;2024-02-28T05:29:38;95389.63;;;9.48;87.74
20612;BME280;10465;42.686;23.364;2024-02-28T05:32:05;95375.69;;;9.43;87.31
20612;BME280;10465;42.686;23.364;2024-02-28T05:34:31;95400.91;;;9.54;86.58
20612;BME280;10465;42.686;23.364;2024-02-28T05:36:56;95416.59;;;9.64;87.03
20612;BME280;10465;42.686;23.364;2024-02-28T05:39:22;95398.53;;;9.33;88.78
20612;BME280;10465;42.686;23.364;2024-02-28T05:41:47;95424.53;;;9.64;87.96
20612;BME280;10465;42.686;23.364;2024-02-28T05:44:12;95412.69;;;9.61;88.03
20612;BME280;10465;42.686;23.364;2024-02-28T05:46:39;95430.56;;;9.70;88.08
20612;BME280;10465;42.686;23.364;2024-02-28T05:49:05;95428.00;;;9.64;88.01
20612;BME280;10465;42.686;23.364;2024-02-28T05:51:30;95406.59;;;9.42;88.63
20612;BME280;10465;42.686;23.364;2024-02-28T05:53:55;95419.91;;;9.56;88.42
20612;BME280;10465;42.686;23.364;2024-02-28T05:56:21;95445.50;;;9.79;87.65
20612;BME280;10465;42.686;23.364;2024-02-28T05:58:47;95436.56;;;9.56;88.36
20612;BME280;10465;42.686;23.364;2024-02-28T06:01:17;95431.28;;;9.56;88.03
20612;BME280;10465;42.686;23.364;2024-02-28T06:03:42;95450.78;;;9.79;88.72
20612;BME280;10465;42.686;23.364;2024-02-28T06:06:10;95429.72;;;9.74;88.23
20612;BME280;10465;42.686;23.364;2024-02-28T06:08:38;95427.06;;;9.74;87.41
20612;BME280;10465;42.686;23.364;2024-02-28T06:11:03;95447.88;;;9.81;87.57
20612;BME280;10465;42.686;23.364;2024-02-28T06:13:30;95453.09;;;9.86;87.50
20612;BME280;10465;42.686;23.364;2024-02-28T06:15:55;95460.72;;;9.87;88.04
20612;BME280;10465;42.686;23.364;2024-02-28T06:18:22;95465.03;;;10.02;87.66
20612;BME280;10465;42.686;23.364;2024-02-28T06:20:48;95468.25;;;10.18;86.17
20612;BME280;10465;42.686;23.364;2024-02-28T06:23:14;95438.16;;;9.95;86.56
20612;BME280;10465;42.686;23.364;2024-02-28T06:25:39;95476.75;;;10.15;86.31
20612;BME280;10465;42.686;23.364;2024-02-28T06:28:04;95460.66;;;10.11;86.05
20612;BME280;10465;42.686;23.364;2024-02-28T06:30:32;95474.19;;;10.29;86.19
20612;BME280;10465;42.686;23.364;2024-02-28T06:33:01;95465.81;;;10.40;85.91
20612;BME280;10465;42.686;23.364;2024-02-28T06:35:27;95471.16;;;10.54;84.81
20612;BME280;10465;42.686;23.364;2024-02-28T06:37:52;95476.47;;;10.54;84.15
20612;BME280;10465;42.686;23.364;2024-02-28T06:40:18;95474.63;;;10.69;84.23
20612;BME280;10465;42.686;23.364;2024-02-28T06:42:43;95456.41;;;10.67;83.44
20612;BME280;10465;42.686;23.364;2024-02-28T06:45:09;95473.28;;;10.85;83.33
20612;BME280;10465;42.686;23.364;2024-02-28T06:47:34;95476.34;;;10.92;83.04
20612;BME280;10465;42.686;23.364;2024-02-28T06:50:02;95468.09;;;10.94;82.97
20612;BME280;10465;42.686;23.364;2024-02-28T06:52:28;95454.75;;;10.85;83.04
20612;BME280;10465;42.686;23.364;2024-02-28T06:54:53;95456.34;;;10.86;83.78
20612;BME280;10465;42.686;23.364;2024-02-28T06:57:18;95450.97;;;10.91;83.86
20612;BME280;10465;42.686;23.364;2024-02-28T06:59:44;95481.72;;;11.20;83.97
20612;BME280;10465;42.686;23.364;2024-02-28T07:02:10;95477.69;;;11.22;83.30
20612;BME280;10465;42.686;23.364;2024-02-28T07:04:35;95476.41;;;11.20;82.99
20612;BME280;10465;42.686;23.364;2024-02-28T07:07:01;95462.84;;;11.21;83.10
20612;BME280;10465;42.686;23.364;2024-02-28T07:09:27;95472.50;;;11.31;83.20
20612;BME280;10465;42.686;23.364;2024-02-28T07:11:56;95435.88;;;11.33;81.46
20612;BME280;10465;42.686;23.364;2024-02-28T07:14:21;95473.44;;;11.62;80.13
20612;BME280;10465;42.686;23.364;2024-02-28T07:16:46;95471.97;;;11.70;81.42
20612;BME280;10465;42.686;23.364;2024-02-28T07:19:12;95462.06;;;11.76;80.76
20612;BME280;10465;42.686;23.364;2024-02-28T07:21:37;95468.03;;;11.81;79.86
20612;BME280;10465;42.686;23.364;2024-02-28T07:24:03;95468.84;;;11.96;79.51
20612;BME280;10465;42.686;23.364;2024-02-28T07:26:32;95474.28;;;12.13;78.77
20612;BME280;10465;42.686;23.364;2024-02-28T07:28:57;95457.09;;;12.10;77.16
20612;BME280;10465;42.686;23.364;2024-02-28T07:31:22;95475.31;;;12.26;77.14
20612;BME280;10465;42.686;23.364;2024-02-28T07:33:48;95467.41;;;12.12;77.97
20612;BME280;10465;42.686;23.364;2024-02-28T07:36:14;95475.06;;;12.13;77.73
20612;BME280;10465;42.686;23.364;2024-02-28T07:38:41;95472.09;;;12.15;77.17
20612;BME280;10465;42.686;23.364;2024-02-28T07:41:07;95466.78;;;12.15;77.67
20612;BME280;10465;42.686;23.364;2024-02-28T07:43:33;95471.50;;;12.32;76.90
20612;BME280;10465;42.686;23.364;2024-02-28T07:46:11;95459.53;;;12.43;75.65
20612;BME280;10465;42.686;23.364;2024-02-28T07:48:39;95463.28;;;12.65;74.63
20612;BME280;10465;42.686;23.364;2024-02-28T07:51:08;95473.66;;;12.75;73.79
20612;BME280;10465;42.686;23.364;2024-02-28T07:53:34;95478.28;;;12.92;74.20
20612;BME280;10465;42.686;23.364;2024-02-28T07:56:00;95466.13;;;12.99;73.53
20612;BME280;10465;42.686;23.364;2024-02-28T07:58:25;95468.41;;;13.15;72.78
20612;BME280;10465;42.686;23.364;2024-02-28T08:00:51;95464.41;;;13.26;71.79
20612;BME280;10465;42.686;23.364;2024-02-28T08:03:19;95473.63;;;13.28;69.82
20612;BME280;10465;42.686;23.364;2024-02-28T08:05:45;95479.53;;;13.56;69.53
20612;BME280;10465;42.686;23.364;2024-02-28T08:08:11;95480.84;;;13.85;68.69
20612;BME280;10465;42.686;23.364;2024-02-28T08:10:39;95486.53;;;14.09;67.71
20612;BME280;10465;42.686;23.364;2024-02-28T08:13:05;95464.47;;;14.18;67.25
20612;BME280;10465;42.686;23.364;2024-02-28T08:15:31;95454.44;;;14.41;65.87
20612;BME280;10465;42.686;23.364;2024-02-28T08:17:57;95480.78;;;14.59;65.32
20612;BME280;10465;42.686;23.364;2024-02-28T08:20:23;95465.75;;;14.64;64.77
20612;BME280;10465;42.686;23.364;2024-02-28T08:22:48;95458.19;;;14.83;63.29
20612;BME280;10465;42.686;23.364;2024-02-28T08:25:14;95473.66;;;15.07;62.18
20612;BME280;10465;42.686;23.364;2024-02-28T08:27:39;95475.78;;;15.22;63.55
20612;BME280;10465;42.686;23.364;2024-02-28T08:30:05;95469.16;;;15.37;62.37
20612;BME280;10465;42.686;23.364;2024-02-28T08:32:31;95469.50;;;15.36;62.19
20612;BME280;10465;42.686;23.364;2024-02-28T08:34:57;95478.53;;;15.05;62.70
20612;BME280;10465;42.686;23.364;2024-02-28T08:37:23;95444.25;;;14.69;63.07
20612;BME280;10465;42.686;23.364;2024-02-28T08:39:48;95461.00;;;14.78;62.82
20612;BME280;10465;42.686;23.364;2024-02-28T08:42:14;95466.19;;;14.83;63.85
20612;BME280;10465;42.686;23.364;2024-02-28T08:44:39;95435.63;;;14.72;63.46
20612;BME280;10465;42.686;23.364;2024-02-28T08:47:05;95445.81;;;14.87;63.55
20612;BME280;10465;42.686;23.364;2024-02-28T08:49:33;95447.34;;;14.97;63.73
20612;BME280;10465;42.686;23.364;2024-02-28T08:51:58;95445.63;;;14.92;62.19
20612;BME280;10465;42.686;23.364;2024-02-28T08:54:24;95452.41;;;15.28;62.17
20612;BME280;10465;42.686;23.364;2024-02-28T08:56:50;95438.44;;;15.69;60.16
20612;BME280;10465;42.686;23.364;2024-02-28T08:59:16;95433.69;;;15.96;57.89
20612;BME280;10465;42.686;23.364;2024-02-28T09:01:41;95441.47;;;16.10;58.21
20612;BME280;10465;42.686;23.364;2024-02-28T09:04:07;95453.97;;;16.18;57.54
20612;BME280;10465;42.686;23.364;2024-02-28T09:06:32;95419.50;;;15.83;57.82
20612;BME280;10465;42.686;23.364;2024-02-28T09:08:58;95457.88;;;15.99;58.00
20612;BME280;10465;42.686;23.364;2024-02-28T09:11:23;95400.97;;;15.27;57.92
20612;BME280;10465;42.686;23.364;2024-02-28T09:13:50;95454.00;;;15.58;58.73
20612;BME280;10465;42.686;23.364;2024-02-28T09:16:15;95455.38;;;15.73;58.01
20612;BME280;10465;42.686;23.364;2024-02-28T09:18:41;95456.31;;;15.98;58.10
20612;BME280;10465;42.686;23.364;2024-02-28T09:21:08;95465.16;;;16.32;56.30
20612;BME280;10465;42.686;23.364;2024-02-28T09:23:33;95452.50;;;16.29;55.75
20612;BME280;10465;42.686;23.364;2024-02-28T09:25:58;95452.22;;;16.43;55.14
20612;BME280;10465;42.686;23.364;2024-02-28T09:28:24;95453.97;;;16.18;55.38
20612;BME280;10465;42.686;23.364;2024-02-28T09:30:49;95406.97;;;16.04;54.60
20612;BME280;10465;42.686;23.364;2024-02-28T09:33:16;95447.31;;;16.66;54.22
20612;BME280;10465;42.686;23.364;2024-02-28T09:35:44;95433.72;;;16.71;54.05
20612;BME280;10465;42.686;23.364;2024-02-28T09:38:10;95414.09;;;16.67;53.09
20612;BME280;10465;42.686;23.364;2024-02-28T09:40:35;95439.09;;;17.16;52.79
20612;BME280;10465;42.686;23.364;2024-02-28T09:43:02;95443.25;;;17.50;51.92
20612;BME280;10465;42.686;23.364;2024-02-28T09:45:31;95434.41;;;17.62;51.22
20612;BME280;10465;42.686;23.364;2024-02-28T09:48:00;95417.56;;;17.49;51.02
20612;BME280;10465;42.686;23.364;2024-02-28T09:50:27;95432.09;;;17.48;50.97
20612;BME280;10465;42.686;23.364;2024-02-28T09:52:53;95430.97;;;17.62;50.82
20612;BME280;10465;42.686;23.364;2024-02-28T09:55:19;95436.00;;;17.88;50.45
20612;BME280;10465;42.686;23.364;2024-02-28T09:57:47;95426.28;;;17.95;49.71
20612;BME280;10465;42.686;23.364;2024-02-28T10:00:14;95412.78;;;17.92;50.13
20612;BME280;10465;42.686;23.364;2024-02-28T10:02:42;95415.47;;;17.79;49.78
20612;BME280;10465;42.686;23.364;2024-02-28T10:05:10;95392.84;;;17.40;49.95
20612;BME280;10465;42.686;23.364;2024-02-28T10:07:35;95416.56;;;17.29;50.19
20612;BME280;10465;42.686;23.364;2024-02-28T10:10:01;95412.22;;;17.13;50.05
20612;BME280;10465;42.686;23.364;2024-02-28T10:12:26;95397.50;;;16.94;49.46
20612;BME280;10465;42.686;23.364;2024-02-28T10:14:52;95401.91;;;16.78;49.86
20612;BME280;10465;42.686;23.364;2024-02-28T10:17:17;95401.19;;;16.69;49.63
20612;BME280;10465;42.686;23.364;2024-02-28T10:19:43;95421.91;;;16.72;49.55
20612;BME280;10465;42.686;23.364;2024-02-28T10:22:08;95413.44;;;16.70;50.01
20612;BME280;10465;42.686;23.364;2024-02-28T10:24:34;95409.41;;;16.64;50.26
20612;BME280;10465;42.686;23.364;2024-02-28T10:27:01;95396.00;;;16.51;50.88
20612;BME280;10465;42.686;23.364;2024-02-28T10:29:26;95369.47;;;16.34;51.36
20612;BME280;10465;42.686;23.364;2024-02-28T10:31:56;95394.09;;;16.19;52.87
20612;BME280;10465;42.686;23.364;2024-02-28T10:34:21;95393.38;;;16.30;51.63
20612;BME280;10465;42.686;23.364;2024-02-28T10:36:47;95391.53;;;16.43;51.80
20612;BME280;10465;42.686;23.364;2024-02-28T10:39:13;95394.75;;;16.70;51.37
20612;BME280;10465;42.686;23.364;2024-02-28T10:41:39;95373.59;;;16.77;50.97
20612;BME280;10465;42.686;23.364;2024-02-28T10:44:04;95378.53;;;16.99;50.42
20612;BME280;10465;42.686;23.364;2024-02-28T10:46:33;95372.78;;;17.22;50.16
20612;BME280;10465;42.686;23.364;2024-02-28T10:48:58;95349.13;;;17.48;49.30
20612;BME280;10465;42.686;23.364;2024-02-28T10:51:25;95376.16;;;17.96;47.56
20612;BME280;10465;42.686;23.364;2024-02-28T10:54:07;95373.16;;;18.25;47.58
20612;BME280;10465;42.686;23.364;2024-02-28T10:56:33;95359.56;;;18.46;46.56
20612;BME280;10465;42.686;23.364;2024-02-28T10:58:59;95356.31;;;18.69;45.59
20612;BME280;10465;42.686;23.364;2024-02-28T11:01:26;95365.53;;;18.99;45.56
20612;BME280;10465;42.686;23.364;2024-02-28T11:03:52;95348.56;;;19.11;45.21
20612;BME280;10465;42.686;23.364;2024-02-28T11:06:20;95345.31;;;19.53;44.36
20612;BME280;10465;42.686;23.364;2024-02-28T11:08:48;95358.31;;;19.51;43.95
20612;BME280;10465;42.686;23.364;2024-02-28T11:11:20;95339.06;;;18.98;45.11
20612;BME280;10465;42.686;23.364;2024-02-28T11:13:53;95357.47;;;18.99;45.81
20612;BME280;10465;42.686;23.364;2024-02-28T11:16:29;95324.78;;;18.94;45.77
20612;BME280;10465;42.686;23.364;2024-02-28T11:18:55;95346.66;;;19.12;44.80
20612;BME280;10465;42.686;23.364;2024-02-28T11:21:27;95344.03;;;19.31;44.80
20612;BME280;10465;42.686;23.364;2024-02-28T11:24:00;95317.44;;;19.42;43.89
20612;BME280;10465;42.686;23.364;2024-02-28T11:26:26;95335.22;;;19.82;43.41
20612;BME280;10465;42.686;23.364;2024-02-28T11:28:54;95332.59;;;19.85;42.77
20612;BME280;10465;42.686;23.364;2024-02-28T11:31:20;95322.50;;;19.98;42.19
20612;BME280;10465;42.686;23.364;2024-02-28T11:33:46;95322.69;;;20.09;42.45
20612;BME280;10465;42.686;23.364;2024-02-28T11:36:11;95320.03;;;19.89;41.92
20612;BME280;10465;42.686;23.364;2024-02-28T11:38:39;95316.16;;;20.29;41.14
20612;BME280;10465;42.686;23.364;2024-02-28T11:41:04;95319.69;;;20.53;40.65
20612;BME280;10465;42.686;23.364;2024-02-28T11:43:31;95299.59;;;20.46;40.93
20612;BME280;10465;42.686;23.364;2024-02-28T11:46:00;95309.09;;;20.40;40.22
20612;BME280;10465;42.686;23.364;2024-02-28T11:48:26;95303.72;;;20.21;40.07
20612;BME280;10465;42.686;23.364;2024-02-28T11:50:54;95316.06;;;20.45;39.84
20612;BME280;10465;42.686;23.364;2024-02-28T11:53:19;95289.09;;;20.38;39.77
20612;BME280;10465;42.686;23.364;2024-02-28T11:55:48;95296.78;;;20.39;40.35
20612;BME280;10465;42.686;23.364;2024-02-28T11:58:14;95286.91;;;20.24;40.47
20612;BME280;10465;42.686;23.364;2024-02-28T12:00:49;95300.72;;;20.45;40.58
20612;BME280;10465;42.686;23.364;2024-02-28T12:03:25;95307.59;;;20.43;39.87
20612;BME280;10465;42.686;23.364;2024-02-28T12:05:55;95281.91;;;20.45;39.49
20612;BME280;10465;42.686;23.364;2024-02-28T12:08:20;95291.41;;;20.59;40.33
20612;BME280;10465;42.686;23.364;2024-02-28T12:10:47;95293.41;;;20.65;40.34
20612;BME280;10465;42.686;23.364;2024-02-28T12:13:17;95292.41;;;20.73;40.03
20612;BME280;10465;42.686;23.364;2024-02-28T12:15:43;95261.88;;;20.62;39.63
20612;BME280;10465;42.686;23.364;2024-02-28T12:18:08;95233.72;;;20.56;39.17
20612;BME280;10465;42.686;23.364;2024-02-28T12:20:35;95280.28;;;20.83;39.15
20612;BME280;10465;42.686;23.364;2024-02-28T12:23:02;95254.16;;;20.41;40.13
20612;BME280;10465;42.686;23.364;2024-02-28T12:25:28;95273.22;;;20.52;40.92
20612;BME280;10465;42.686;23.364;2024-02-28T12:27:54;95238.22;;;20.29;40.60
20612;BME280;10465;42.686;23.364;2024-02-28T12:30:19;95266.09;;;20.63;40.68
20612;BME280;10465;42.686;23.364;2024-02-28T12:32:45;95248.38;;;20.39;40.38
20612;BME280;10465;42.686;23.364;2024-02-28T12:35:11;95245.81;;;20.46;40.64
20612;BME280;10465;42.686;23.364;2024-02-28T12:37:36;95252.97;;;20.58;40.46
20612;BME280;10465;42.686;23.364;2024-02-28T12:40:03;95227.47;;;20.29;40.69
20612;BME280;10465;42.686;23.364;2024-02-28T12:42:30;95250.72;;;20.18;40.90
20612;BME280;10465;42.686;23.364;2024-02-28T12:44:55;95244.06;;;19.92;40.53
20612;BME280;10465;42.686;23.364;2024-02-28T12:47:21;95260.19;;;20.12;40.41